sensor_id;sensor_type;location;lat;lon;timestamp;P1;durP1;ratioP1;P2;durP2;ratioP2
35648;SDS011;21768;48.562;13.414;2022-10-31T00:03:42;42.45;;;6.65;;
35648;SDS011;21768;48.562;13.414;2022-10-31T00:06:08;69.45;;;18.10;;
35648;SDS011;21768;48.562;13.414;2022-10-31T00:08:33;63.90;;;10.40;;
35648;SDS011;21768;48.562;13.414;2022-10-31T00:10:59;39.10;;;11.50;;
35648;SDS011;21768;48.562;13.414;2022-10-31T00:13:24;90.60;;;24.30;;
35648;SDS011;21768;48.562;13.414;2022-10-31T00:15:50;71.93;;;17.30;;
35648;SDS011;21768;48.562;13.414;2022-10-31T00:18:15;142.07;;;35.15;;
35648;SDS011;21768;48.562;13.414;2022-10-31T00:20:40;130.32;;;33.60;;
35648;SDS011;21768;48.562;13.414;2022-10-31T00:23:06;77.72;;;12.77;;
35648;SDS011;21768;48.562;13.414;2022-10-31T00:25:36;117.32;;;11.00;;
35648;SDS011;21768;48.562;13.414;2022-10-31T00:28:03;87.97;;;8.27;;
35648;SDS011;21768;48.562;13.414;2022-10-31T00:30:30;87.90;;;8.15;;
35648;SDS011;21768;48.562;13.414;2022-10-31T00:32:55;66.50;;;8.02;;
35648;SDS011;21768;48.562;13.414;2022-10-31T00:35:21;85.38;;;12.10;;
35648;SDS011;21768;48.562;13.414;2022-10-31T00:37:46;63.95;;;18.75;;
35648;SDS011;21768;48.562;13.414;2022-10-31T00:40:11;78.20;;;8.98;;
35648;SDS011;21768;48.562;13.414;2022-10-31T00:42:38;73.38;;;8.15;;
35648;SDS011;21768;48.562;13.414;2022-10-31T00:45:04;74.22;;;8.43;;
35648;SDS011;21768;48.562;13.414;2022-10-31T00:47:29;37.15;;;7.25;;
35648;SDS011;21768;48.562;13.414;2022-10-31T00:49:55;49.78;;;7.97;;
35648;SDS011;21768;48.562;13.414;2022-10-31T00:52:20;57.05;;;7.20;;
35648;SDS011;21768;48.562;13.414;2022-10-31T00:54:45;55.03;;;7.15;;
35648;SDS011;21768;48.562;13.414;2022-10-31T00:57:11;43.85;;;7.65;;
35648;SDS011;21768;48.562;13.414;2022-10-31T00:59:36;45.55;;;7.68;;
35648;SDS011;21768;48.562;13.414;2022-10-31T01:02:02;40.65;;;7.10;;
35648;SDS011;21768;48.562;13.414;2022-10-31T01:04:27;31.35;;;6.30;;
35648;SDS011;21768;48.562;13.414;2022-10-31T01:06:52;48.42;;;6.10;;
35648;SDS011;21768;48.562;13.414;2022-10-31T01:09:18;32.92;;;5.80;;
35648;SDS011;21768;48.562;13.414;2022-10-31T01:11:43;32.60;;;5.85;;
35648;SDS011;21768;48.562;13.414;2022-10-31T01:14:09;29.77;;;5.57;;
35648;SDS011;21768;48.562;13.414;2022-10-31T01:16:34;24.05;;;5.32;;
35648;SDS011;21768;48.562;13.414;2022-10-31T01:19:00;27.40;;;5.32;;
35648;SDS011;21768;48.562;13.414;2022-10-31T01:21:26;29.45;;;5.13;;
35648;SDS011;21768;48.562;13.414;2022-10-31T01:23:53;14.88;;;4.78;;
35648;SDS011;21768;48.562;13.414;2022-10-31T01:26:23;18.42;;;5.40;;
35648;SDS011;21768;48.562;13.414;2022-10-31T01:28:58;19.85;;;5.50;;
35648;SDS011;21768;48.562;13.414;2022-10-31T01:31:29;19.85;;;5.13;;
35648;SDS011;21768;48.562;13.414;2022-10-31T01:33:57;13.15;;;5.15;;
35648;SDS011;21768;48.562;13.414;2022-10-31T01:36:27;26.05;;;4.65;;
35648;SDS011;21768;48.562;13.414;2022-10-31T01:38:58;13.25;;;5.18;;
35648;SDS011;21768;48.562;13.414;2022-10-31T01:41:28;19.50;;;5.30;;
35648;SDS011;21768;48.562;13.414;2022-10-31T01:43:57;18.45;;;5.18;;
35648;SDS011;21768;48.562;13.414;2022-10-31T01:46:24;16.25;;;4.60;;
35648;SDS011;21768;48.562;13.414;2022-10-31T01:48:54;18.42;;;5.15;;
35648;SDS011;21768;48.562;13.414;2022-10-31T01:51:23;14.30;;;5.63;;
35648;SDS011;21768;48.562;13.414;2022-10-31T01:53:54;14.85;;;4.80;;
35648;SDS011;21768;48.562;13.414;2022-10-31T01:56:23;27.75;;;4.88;;
35648;SDS011;21768;48.562;13.414;2022-10-31T01:58:49;31.60;;;4.97;;
35648;SDS011;21768;48.562;13.414;2022-10-31T02:01:15;21.75;;;4.85;;
35648;SDS011;21768;48.562;13.414;2022-10-31T02:03:41;31.10;;;4.85;;
35648;SDS011;21768;48.562;13.414;2022-10-31T02:06:09;25.70;;;5.20;;
35648;SDS011;21768;48.562;13.414;2022-10-31T02:08:40;21.05;;;4.60;;
35648;SDS011;21768;48.562;13.414;2022-10-31T02:11:07;23.42;;;4.13;;
35648;SDS011;21768;48.562;13.414;2022-10-31T02:13:34;10.98;;;4.68;;
35648;SDS011;21768;48.562;13.414;2022-10-31T02:15:59;23.50;;;4.32;;
35648;SDS011;21768;48.562;13.414;2022-10-31T02:18:27;17.30;;;4.80;;
35648;SDS011;21768;48.562;13.414;2022-10-31T02:21:01;10.07;;;4.43;;
35648;SDS011;21768;48.562;13.414;2022-10-31T02:31:36;11.25;;;4.55;;
35648;SDS011;21768;48.562;13.414;2022-10-31T02:34:09;38.38;;;5.28;;
35648;SDS011;21768;48.562;13.414;2022-10-31T02:39:26;19.20;;;4.90;;
35648;SDS011;21768;48.562;13.414;2022-10-31T02:42:12;36.83;;;4.47;;
35648;SDS011;21768;48.562;13.414;2022-10-31T02:44:53;26.08;;;5.03;;
35648;SDS011;21768;48.562;13.414;2022-10-31T02:47:28;39.75;;;5.00;;
35648;SDS011;21768;48.562;13.414;2022-10-31T02:52:49;45.00;;;5.40;;
35648;SDS011;21768;48.562;13.414;2022-10-31T02:57:51;52.83;;;4.85;;
35648;SDS011;21768;48.562;13.414;2022-10-31T03:00:20;38.10;;;5.28;;
35648;SDS011;21768;48.562;13.414;2022-10-31T03:05:18;59.20;;;5.53;;
35648;SDS011;21768;48.562;13.414;2022-10-31T03:08:12;63.28;;;5.38;;
35648;SDS011;21768;48.562;13.414;2022-10-31T03:10:56;88.80;;;6.70;;
35648;SDS011;21768;48.562;13.414;2022-10-31T03:13:31;130.25;;;5.70;;
35648;SDS011;21768;48.562;13.414;2022-10-31T03:16:02;92.10;;;5.82;;
35648;SDS011;21768;48.562;13.414;2022-10-31T03:21:27;28.90;;;4.72;;
35648;SDS011;21768;48.562;13.414;2022-10-31T03:23:58;58.22;;;4.85;;
35648;SDS011;21768;48.562;13.414;2022-10-31T03:26:25;43.47;;;4.70;;
35648;SDS011;21768;48.562;13.414;2022-10-31T03:28:59;62.50;;;4.75;;
35648;SDS011;21768;48.562;13.414;2022-10-31T03:31:34;85.30;;;4.90;;
35648;SDS011;21768;48.562;13.414;2022-10-31T03:34:03;29.67;;;4.45;;
35648;SDS011;21768;48.562;13.414;2022-10-31T03:36:32;37.08;;;4.30;;
35648;SDS011;21768;48.562;13.414;2022-10-31T03:39:01;34.22;;;4.20;;
35648;SDS011;21768;48.562;13.414;2022-10-31T03:41:30;55.55;;;5.18;;
35648;SDS011;21768;48.562;13.414;2022-10-31T03:44:00;39.05;;;4.63;;
35648;SDS011;21768;48.562;13.414;2022-10-31T03:46:30;29.48;;;5.25;;
35648;SDS011;21768;48.562;13.414;2022-10-31T03:48:55;67.18;;;5.35;;
35648;SDS011;21768;48.562;13.414;2022-10-31T03:56:50;93.28;;;5.28;;
35648;SDS011;21768;48.562;13.414;2022-10-31T03:59:51;126.13;;;6.53;;
35648;SDS011;21768;48.562;13.414;2022-10-31T04:02:25;71.10;;;5.35;;
35648;SDS011;21768;48.562;13.414;2022-10-31T04:04:54;133.88;;;6.20;;
35648;SDS011;21768;48.562;13.414;2022-10-31T04:07:21;74.15;;;5.18;;
35648;SDS011;21768;48.562;13.414;2022-10-31T04:09:51;81.75;;;6.20;;
35648;SDS011;21768;48.562;13.414;2022-10-31T04:12:18;81.53;;;4.82;;
35648;SDS011;21768;48.562;13.414;2022-10-31T04:14:46;41.80;;;4.63;;
35648;SDS011;21768;48.562;13.414;2022-10-31T04:17:14;71.70;;;5.28;;
35648;SDS011;21768;48.562;13.414;2022-10-31T04:19:42;104.53;;;6.28;;
35648;SDS011;21768;48.562;13.414;2022-10-31T04:22:08;75.53;;;5.57;;
35648;SDS011;21768;48.562;13.414;2022-10-31T04:24:33;44.55;;;5.60;;
35648;SDS011;21768;48.562;13.414;2022-10-31T04:26:59;75.32;;;5.45;;
35648;SDS011;21768;48.562;13.414;2022-10-31T04:29:24;80.47;;;5.32;;
35648;SDS011;21768;48.562;13.414;2022-10-31T04:31:50;70.65;;;5.40;;
35648;SDS011;21768;48.562;13.414;2022-10-31T04:34:15;46.60;;;4.88;;
35648;SDS011;21768;48.562;13.414;2022-10-31T04:36:40;43.85;;;4.65;;
35648;SDS011;21768;48.562;13.414;2022-10-31T04:39:06;25.67;;;5.32;;
35648;SDS011;21768;48.562;13.414;2022-10-31T04:41:31;45.72;;;4.75;;
35648;SDS011;21768;48.562;13.414;2022-10-31T04:43:56;43.78;;;5.40;;
35648;SDS011;21768;48.562;13.414;2022-10-31T04:46:22;58.28;;;5.82;;
35648;SDS011;21768;48.562;13.414;2022-10-31T04:48:47;38.97;;;6.18;;
35648;SDS011;21768;48.562;13.414;2022-10-31T04:51:13;38.83;;;6.22;;
35648;SDS011;21768;48.562;13.414;2022-10-31T04:53:38;46.78;;;5.50;;
35648;SDS011;21768;48.562;13.414;2022-10-31T04:56:03;56.65;;;6.00;;
35648;SDS011;21768;48.562;13.414;2022-10-31T04:58:29;74.00;;;7.13;;
35648;SDS011;21768;48.562;13.414;2022-10-31T05:00:55;78.68;;;9.65;;
35648;SDS011;21768;48.562;13.414;2022-10-31T05:03:21;33.10;;;6.03;;
35648;SDS011;21768;48.562;13.414;2022-10-31T05:05:46;48.40;;;5.72;;
35648;SDS011;21768;48.562;13.414;2022-10-31T05:08:13;52.28;;;6.47;;
35648;SDS011;21768;48.562;13.414;2022-10-31T05:10:38;63.83;;;5.82;;
35648;SDS011;21768;48.562;13.414;2022-10-31T05:13:04;52.35;;;5.63;;
35648;SDS011;21768;48.562;13.414;2022-10-31T05:15:30;68.13;;;5.68;;
35648;SDS011;21768;48.562;13.414;2022-10-31T05:17:56;59.85;;;5.28;;
35648;SDS011;21768;48.562;13.414;2022-10-31T05:20:23;71.18;;;5.88;;
35648;SDS011;21768;48.562;13.414;2022-10-31T05:22:51;46.28;;;6.38;;
35648;SDS011;21768;48.562;13.414;2022-10-31T05:25:18;48.88;;;5.60;;
35648;SDS011;21768;48.562;13.414;2022-10-31T05:27:45;56.08;;;5.35;;
35648;SDS011;21768;48.562;13.414;2022-10-31T05:30:13;54.35;;;7.57;;
35648;SDS011;21768;48.562;13.414;2022-10-31T05:32:41;37.97;;;6.40;;
35648;SDS011;21768;48.562;13.414;2022-10-31T05:35:12;40.13;;;6.65;;
35648;SDS011;21768;48.562;13.414;2022-10-31T05:37:40;30.05;;;7.85;;
35648;SDS011;21768;48.562;13.414;2022-10-31T05:40:06;35.58;;;6.90;;
35648;SDS011;21768;48.562;13.414;2022-10-31T05:42:34;42.45;;;6.82;;
35648;SDS011;21768;48.562;13.414;2022-10-31T05:44:59;47.88;;;6.00;;
35648;SDS011;21768;48.562;13.414;2022-10-31T05:47:25;28.52;;;5.72;;
35648;SDS011;21768;48.562;13.414;2022-10-31T05:49:50;40.20;;;6.20;;
35648;SDS011;21768;48.562;13.414;2022-10-31T05:52:16;36.35;;;5.45;;
35648;SDS011;21768;48.562;13.414;2022-10-31T05:54:41;30.55;;;5.90;;
35648;SDS011;21768;48.562;13.414;2022-10-31T05:57:06;33.67;;;5.20;;
35648;SDS011;21768;48.562;13.414;2022-10-31T05:59:32;31.73;;;5.05;;
35648;SDS011;21768;48.562;13.414;2022-10-31T06:01:57;60.67;;;4.78;;
35648;SDS011;21768;48.562;13.414;2022-10-31T06:04:23;38.85;;;4.32;;
35648;SDS011;21768;48.562;13.414;2022-10-31T06:06:48;47.70;;;4.65;;
35648;SDS011;21768;48.562;13.414;2022-10-31T06:09:13;29.05;;;4.55;;
35648;SDS011;21768;48.562;13.414;2022-10-31T06:11:39;33.45;;;4.40;;
35648;SDS011;21768;48.562;13.414;2022-10-31T06:14:04;31.67;;;5.25;;
35648;SDS011;21768;48.562;13.414;2022-10-31T06:16:30;39.33;;;4.82;;
35648;SDS011;21768;48.562;13.414;2022-10-31T06:18:56;39.38;;;4.88;;
35648;SDS011;21768;48.562;13.414;2022-10-31T06:21:21;37.20;;;4.75;;
35648;SDS011;21768;48.562;13.414;2022-10-31T06:23:47;27.80;;;4.65;;
35648;SDS011;21768;48.562;13.414;2022-10-31T06:26:12;46.47;;;4.88;;
35648;SDS011;21768;48.562;13.414;2022-10-31T06:28:37;38.17;;;4.60;;
35648;SDS011;21768;48.562;13.414;2022-10-31T06:31:03;58.75;;;5.35;;
35648;SDS011;21768;48.562;13.414;2022-10-31T06:33:28;44.13;;;4.60;;
35648;SDS011;21768;48.562;13.414;2022-10-31T06:35:54;110.78;;;5.43;;
35648;SDS011;21768;48.562;13.414;2022-10-31T06:38:19;86.82;;;5.28;;
35648;SDS011;21768;48.562;13.414;2022-10-31T06:40:44;66.78;;;5.43;;
35648;SDS011;21768;48.562;13.414;2022-10-31T06:43:10;43.10;;;4.72;;
35648;SDS011;21768;48.562;13.414;2022-10-31T06:45:36;66.10;;;5.45;;
35648;SDS011;21768;48.562;13.414;2022-10-31T06:48:02;39.75;;;5.30;;
35648;SDS011;21768;48.562;13.414;2022-10-31T06:50:28;61.78;;;6.45;;
35648;SDS011;21768;48.562;13.414;2022-10-31T06:52:54;39.20;;;4.95;;
35648;SDS011;21768;48.562;13.414;2022-10-31T06:55:22;51.75;;;5.47;;
35648;SDS011;21768;48.562;13.414;2022-10-31T06:57:52;67.00;;;5.45;;
35648;SDS011;21768;48.562;13.414;2022-10-31T07:00:19;43.45;;;6.22;;
35648;SDS011;21768;48.562;13.414;2022-10-31T07:02:58;60.97;;;5.47;;
35648;SDS011;21768;48.562;13.414;2022-10-31T07:05:31;41.17;;;5.65;;
35648;SDS011;21768;48.562;13.414;2022-10-31T07:07:58;62.25;;;8.88;;
35648;SDS011;21768;48.562;13.414;2022-10-31T07:10:29;60.00;;;5.75;;
35648;SDS011;21768;48.562;13.414;2022-10-31T07:12:57;70.80;;;6.63;;
35648;SDS011;21768;48.562;13.414;2022-10-31T07:15:25;40.80;;;6.00;;
35648;SDS011;21768;48.562;13.414;2022-10-31T07:17:52;36.70;;;5.78;;
35648;SDS011;21768;48.562;13.414;2022-10-31T07:20:18;34.67;;;5.80;;
35648;SDS011;21768;48.562;13.414;2022-10-31T07:22:44;46.15;;;5.57;;
35648;SDS011;21768;48.562;13.414;2022-10-31T07:25:09;33.08;;;5.50;;
35648;SDS011;21768;48.562;13.414;2022-10-31T07:27:36;80.03;;;6.80;;
35648;SDS011;21768;48.562;13.414;2022-10-31T07:30:02;86.60;;;9.88;;
35648;SDS011;21768;48.562;13.414;2022-10-31T07:32:36;67.53;;;8.52;;
35648;SDS011;21768;48.562;13.414;2022-10-31T07:35:06;33.53;;;6.40;;
35648;SDS011;21768;48.562;13.414;2022-10-31T07:37:33;26.80;;;6.70;;
35648;SDS011;21768;48.562;13.414;2022-10-31T07:39:58;33.92;;;6.22;;
35648;SDS011;21768;48.562;13.414;2022-10-31T07:42:24;78.60;;;6.75;;
35648;SDS011;21768;48.562;13.414;2022-10-31T07:44:49;58.38;;;5.88;;
35648;SDS011;21768;48.562;13.414;2022-10-31T07:47:14;39.42;;;5.40;;
35648;SDS011;21768;48.562;13.414;2022-10-31T07:49:40;58.70;;;7.40;;
35648;SDS011;21768;48.562;13.414;2022-10-31T07:52:05;86.97;;;6.60;;
35648;SDS011;21768;48.562;13.414;2022-10-31T07:54:30;58.05;;;14.88;;
35648;SDS011;21768;48.562;13.414;2022-10-31T07:56:56;40.55;;;6.13;;
35648;SDS011;21768;48.562;13.414;2022-10-31T07:59:21;29.00;;;6.07;;
35648;SDS011;21768;48.562;13.414;2022-10-31T08:01:46;44.95;;;7.95;;
35648;SDS011;21768;48.562;13.414;2022-10-31T08:04:12;57.72;;;7.00;;
35648;SDS011;21768;48.562;13.414;2022-10-31T08:06:37;72.05;;;6.20;;
35648;SDS011;21768;48.562;13.414;2022-10-31T08:09:02;34.80;;;5.45;;
35648;SDS011;21768;48.562;13.414;2022-10-31T08:11:28;46.38;;;14.15;;
35648;SDS011;21768;48.562;13.414;2022-10-31T08:13:53;67.45;;;19.98;;
35648;SDS011;21768;48.562;13.414;2022-10-31T08:16:18;25.63;;;10.15;;
35648;SDS011;21768;48.562;13.414;2022-10-31T08:18:44;21.85;;;6.18;;
35648;SDS011;21768;48.562;13.414;2022-10-31T08:21:09;61.05;;;20.35;;
35648;SDS011;21768;48.562;13.414;2022-10-31T08:23:35;61.58;;;16.13;;
35648;SDS011;21768;48.562;13.414;2022-10-31T08:26:01;27.98;;;4.38;;
35648;SDS011;21768;48.562;13.414;2022-10-31T08:28:26;42.88;;;3.90;;
35648;SDS011;21768;48.562;13.414;2022-10-31T08:30:51;48.83;;;4.53;;
35648;SDS011;21768;48.562;13.414;2022-10-31T08:33:17;56.83;;;5.50;;
35648;SDS011;21768;48.562;13.414;2022-10-31T08:35:44;66.10;;;7.90;;
35648;SDS011;21768;48.562;13.414;2022-10-31T08:38:10;41.80;;;7.53;;
35648;SDS011;21768;48.562;13.414;2022-10-31T08:40:37;31.17;;;6.68;;
35648;SDS011;21768;48.562;13.414;2022-10-31T08:43:03;55.38;;;8.05;;
35648;SDS011;21768;48.562;13.414;2022-10-31T08:45:31;36.88;;;13.15;;
35648;SDS011;21768;48.562;13.414;2022-10-31T08:47:58;59.70;;;5.88;;
35648;SDS011;21768;48.562;13.414;2022-10-31T08:50:28;16.38;;;4.47;;
35648;SDS011;21768;48.562;13.414;2022-10-31T08:53:15;12.98;;;3.92;;
35648;SDS011;21768;48.562;13.414;2022-10-31T08:55:42;13.60;;;4.57;;
35648;SDS011;21768;48.562;13.414;2022-10-31T08:58:13;15.63;;;4.18;;
35648;SDS011;21768;48.562;13.414;2022-10-31T09:00:40;6.78;;;4.72;;
35648;SDS011;21768;48.562;13.414;2022-10-31T09:03:09;10.50;;;4.80;;
35648;SDS011;21768;48.562;13.414;2022-10-31T09:05:49;19.88;;;4.72;;
35648;SDS011;21768;48.562;13.414;2022-10-31T09:08:15;6.82;;;4.65;;
35648;SDS011;21768;48.562;13.414;2022-10-31T09:10:41;6.55;;;4.50;;
35648;SDS011;21768;48.562;13.414;2022-10-31T09:13:11;7.15;;;4.35;;
35648;SDS011;21768;48.562;13.414;2022-10-31T09:15:39;9.57;;;5.00;;
35648;SDS011;21768;48.562;13.414;2022-10-31T09:18:06;5.88;;;4.03;;
35648;SDS011;21768;48.562;13.414;2022-10-31T09:20:33;9.48;;;4.43;;
35648;SDS011;21768;48.562;13.414;2022-10-31T09:23:10;8.63;;;4.78;;
35648;SDS011;21768;48.562;13.414;2022-10-31T09:25:37;10.77;;;4.70;;
35648;SDS011;21768;48.562;13.414;2022-10-31T09:28:03;9.52;;;5.18;;
35648;SDS011;21768;48.562;13.414;2022-10-31T09:30:31;17.52;;;7.25;;
35648;SDS011;21768;48.562;13.414;2022-10-31T09:32:58;8.55;;;4.68;;
35648;SDS011;21768;48.562;13.414;2022-10-31T09:35:25;8.30;;;5.55;;
35648;SDS011;21768;48.562;13.414;2022-10-31T09:37:55;9.20;;;4.65;;
35648;SDS011;21768;48.562;13.414;2022-10-31T09:40:21;9.55;;;4.60;;
35648;SDS011;21768;48.562;13.414;2022-10-31T09:42:52;7.32;;;4.70;;
35648;SDS011;21768;48.562;13.414;2022-10-31T09:54:08;12.15;;;7.65;;
35648;SDS011;21768;48.562;13.414;2022-10-31T09:56:41;7.63;;;5.57;;
35648;SDS011;21768;48.562;13.414;2022-10-31T09:59:12;6.65;;;3.92;;
35648;SDS011;21768;48.562;13.414;2022-10-31T10:04:37;6.75;;;3.45;;
35648;SDS011;21768;48.562;13.414;2022-10-31T10:07:11;4.75;;;3.03;;
35648;SDS011;21768;48.562;13.414;2022-10-31T10:09:37;5.35;;;3.60;;
35648;SDS011;21768;48.562;13.414;2022-10-31T10:17:52;7.65;;;3.63;;
35648;SDS011;21768;48.562;13.414;2022-10-31T10:23:13;7.43;;;3.45;;
35648;SDS011;21768;48.562;13.414;2022-10-31T10:25:42;8.68;;;3.38;;
35648;SDS011;21768;48.562;13.414;2022-10-31T10:28:23;6.32;;;3.40;;
35648;SDS011;21768;48.562;13.414;2022-10-31T10:31:10;10.10;;;3.78;;
35648;SDS011;21768;48.562;13.414;2022-10-31T10:33:41;8.43;;;3.15;;
35648;SDS011;21768;48.562;13.414;2022-10-31T10:36:20;6.00;;;3.40;;
35648;SDS011;21768;48.562;13.414;2022-10-31T10:39:09;6.50;;;3.70;;
35648;SDS011;21768;48.562;13.414;2022-10-31T10:41:41;8.52;;;3.38;;
35648;SDS011;21768;48.562;13.414;2022-10-31T10:44:10;5.70;;;3.55;;
35648;SDS011;21768;48.562;13.414;2022-10-31T10:46:43;9.55;;;3.75;;
35648;SDS011;21768;48.562;13.414;2022-10-31T10:52:57;9.77;;;5.20;;
35648;SDS011;21768;48.562;13.414;2022-10-31T10:58:03;10.98;;;3.60;;
35648;SDS011;21768;48.562;13.414;2022-10-31T11:00:34;9.60;;;3.95;;
35648;SDS011;21768;48.562;13.414;2022-10-31T11:03:02;7.50;;;4.00;;
35648;SDS011;21768;48.562;13.414;2022-10-31T11:08:05;10.57;;;5.22;;
35648;SDS011;21768;48.562;13.414;2022-10-31T11:10:31;10.93;;;5.25;;
35648;SDS011;21768;48.562;13.414;2022-10-31T11:13:06;16.17;;;5.22;;
35648;SDS011;21768;48.562;13.414;2022-10-31T11:15:36;12.90;;;4.78;;
35648;SDS011;21768;48.562;13.414;2022-10-31T11:18:21;9.25;;;4.60;;
35648;SDS011;21768;48.562;13.414;2022-10-31T11:20:51;17.20;;;4.97;;
35648;SDS011;21768;48.562;13.414;2022-10-31T11:23:19;9.43;;;4.22;;
35648;SDS011;21768;48.562;13.414;2022-10-31T11:26:04;8.68;;;4.60;;
35648;SDS011;21768;48.562;13.414;2022-10-31T11:28:32;9.07;;;4.28;;
35648;SDS011;21768;48.562;13.414;2022-10-31T11:31:00;13.32;;;5.03;;
35648;SDS011;21768;48.562;13.414;2022-10-31T11:33:32;9.35;;;4.28;;
35648;SDS011;21768;48.562;13.414;2022-10-31T11:36:02;7.20;;;4.03;;
35648;SDS011;21768;48.562;13.414;2022-10-31T11:38:40;9.77;;;4.28;;
35648;SDS011;21768;48.562;13.414;2022-10-31T11:41:19;9.38;;;3.75;;
35648;SDS011;21768;48.562;13.414;2022-10-31T11:43:53;8.27;;;4.75;;
35648;SDS011;21768;48.562;13.414;2022-10-31T11:46:30;11.27;;;4.85;;
35648;SDS011;21768;48.562;13.414;2022-10-31T11:49:00;13.45;;;4.75;;
35648;SDS011;21768;48.562;13.414;2022-10-31T11:51:29;9.48;;;4.65;;
35648;SDS011;21768;48.562;13.414;2022-10-31T11:53:58;11.85;;;4.45;;
35648;SDS011;21768;48.562;13.414;2022-10-31T11:56:27;8.65;;;4.35;;
35648;SDS011;21768;48.562;13.414;2022-10-31T11:58:56;9.32;;;4.55;;
35648;SDS011;21768;48.562;13.414;2022-10-31T12:01:25;13.75;;;4.93;;
35648;SDS011;21768;48.562;13.414;2022-10-31T12:06:35;9.95;;;4.07;;
35648;SDS011;21768;48.562;13.414;2022-10-31T12:09:02;10.38;;;3.83;;
35648;SDS011;21768;48.562;13.414;2022-10-31T12:17:29;10.45;;;4.45;;
35648;SDS011;21768;48.562;13.414;2022-10-31T12:23:03;8.88;;;3.90;;
35648;SDS011;21768;48.562;13.414;2022-10-31T12:28:49;10.98;;;4.05;;
35648;SDS011;21768;48.562;13.414;2022-10-31T12:41:52;6.60;;;4.20;;
35648;SDS011;21768;48.562;13.414;2022-10-31T12:50:17;16.58;;;4.20;;
35648;SDS011;21768;48.562;13.414;2022-10-31T13:03:35;9.30;;;4.40;;
35648;SDS011;21768;48.562;13.414;2022-10-31T13:06:03;12.70;;;4.90;;
35648;SDS011;21768;48.562;13.414;2022-10-31T13:08:42;9.15;;;4.25;;
35648;SDS011;21768;48.562;13.414;2022-10-31T13:11:31;12.25;;;4.80;;
35648;SDS011;21768;48.562;13.414;2022-10-31T13:14:04;13.98;;;6.57;;
35648;SDS011;21768;48.562;13.414;2022-10-31T13:16:36;17.00;;;5.65;;
35648;SDS011;21768;48.562;13.414;2022-10-31T13:24:35;19.10;;;5.78;;
35648;SDS011;21768;48.562;13.414;2022-10-31T13:27:09;12.15;;;5.22;;
35648;SDS011;21768;48.562;13.414;2022-10-31T13:29:43;13.63;;;5.97;;
35648;SDS011;21768;48.562;13.414;2022-10-31T13:32:17;11.90;;;5.60;;
35648;SDS011;21768;48.562;13.414;2022-10-31T13:34:45;15.73;;;5.35;;
35648;SDS011;21768;48.562;13.414;2022-10-31T13:37:34;13.98;;;5.65;;
35648;SDS011;21768;48.562;13.414;2022-10-31T13:42:54;11.23;;;5.65;;
35648;SDS011;21768;48.562;13.414;2022-10-31T13:45:21;20.27;;;6.18;;
35648;SDS011;21768;48.562;13.414;2022-10-31T13:48:01;13.23;;;5.90;;
35648;SDS011;21768;48.562;13.414;2022-10-31T13:51:09;16.60;;;5.93;;
35648;SDS011;21768;48.562;13.414;2022-10-31T13:56:17;14.55;;;5.45;;
35648;SDS011;21768;48.562;13.414;2022-10-31T14:01:33;11.82;;;5.18;;
35648;SDS011;21768;48.562;13.414;2022-10-31T14:04:07;12.57;;;5.15;;
35648;SDS011;21768;48.562;13.414;2022-10-31T14:07:07;15.00;;;5.55;;
35648;SDS011;21768;48.562;13.414;2022-10-31T14:09:37;11.27;;;6.00;;
35648;SDS011;21768;48.562;13.414;2022-10-31T14:15:21;15.23;;;5.53;;
35648;SDS011;21768;48.562;13.414;2022-10-31T14:17:53;15.90;;;5.95;;
35648;SDS011;21768;48.562;13.414;2022-10-31T14:23:56;17.67;;;6.00;;
35648;SDS011;21768;48.562;13.414;2022-10-31T14:28:51;11.35;;;5.75;;
35648;SDS011;21768;48.562;13.414;2022-10-31T14:31:37;9.55;;;5.68;;
35648;SDS011;21768;48.562;13.414;2022-10-31T14:36:43;12.85;;;6.20;;
35648;SDS011;21768;48.562;13.414;2022-10-31T14:50:05;12.48;;;5.97;;
35648;SDS011;21768;48.562;13.414;2022-10-31T14:52:32;15.98;;;6.40;;
35648;SDS011;21768;48.562;13.414;2022-10-31T14:55:01;13.68;;;6.30;;
35648;SDS011;21768;48.562;13.414;2022-10-31T14:57:32;13.63;;;6.22;;
35648;SDS011;21768;48.562;13.414;2022-10-31T15:00:03;23.05;;;6.50;;
35648;SDS011;21768;48.562;13.414;2022-10-31T15:05:09;19.05;;;8.25;;
35648;SDS011;21768;48.562;13.414;2022-10-31T15:07:36;14.75;;;7.18;;
35648;SDS011;21768;48.562;13.414;2022-10-31T15:10:05;14.80;;;6.85;;
35648;SDS011;21768;48.562;13.414;2022-10-31T15:12:44;17.88;;;8.63;;
35648;SDS011;21768;48.562;13.414;2022-10-31T15:18:00;14.40;;;7.88;;
35648;SDS011;21768;48.562;13.414;2022-10-31T15:20:28;20.23;;;7.82;;
35648;SDS011;21768;48.562;13.414;2022-10-31T15:22:58;19.55;;;8.15;;
35648;SDS011;21768;48.562;13.414;2022-10-31T15:25:25;14.73;;;7.88;;
35648;SDS011;21768;48.562;13.414;2022-10-31T15:27:55;18.52;;;8.40;;
35648;SDS011;21768;48.562;13.414;2022-10-31T15:32:50;17.50;;;8.38;;
35648;SDS011;21768;48.562;13.414;2022-10-31T15:35:20;27.65;;;11.13;;
35648;SDS011;21768;48.562;13.414;2022-10-31T15:37:54;19.00;;;9.85;;
35648;SDS011;21768;48.562;13.414;2022-10-31T15:40:21;24.85;;;11.48;;
35648;SDS011;21768;48.562;13.414;2022-10-31T15:42:59;21.23;;;10.07;;
35648;SDS011;21768;48.562;13.414;2022-10-31T15:45:27;23.13;;;10.30;;
35648;SDS011;21768;48.562;13.414;2022-10-31T15:47:59;26.92;;;11.10;;
35648;SDS011;21768;48.562;13.414;2022-10-31T15:54:10;29.90;;;11.95;;
35648;SDS011;21768;48.562;13.414;2022-10-31T15:56:11;23.33;;;11.88;;
35648;SDS011;21768;48.562;13.414;2022-10-31T15:58:45;23.90;;;11.85;;
35648;SDS011;21768;48.562;13.414;2022-10-31T16:01:29;25.88;;;12.10;;
35648;SDS011;21768;48.562;13.414;2022-10-31T16:03:58;28.10;;;11.75;;
35648;SDS011;21768;48.562;13.414;2022-10-31T16:06:28;31.15;;;14.88;;
35648;SDS011;21768;48.562;13.414;2022-10-31T16:08:54;29.60;;;13.30;;
35648;SDS011;21768;48.562;13.414;2022-10-31T16:13:52;31.02;;;12.07;;
35648;SDS011;21768;48.562;13.414;2022-10-31T16:16:18;19.77;;;9.98;;
35648;SDS011;21768;48.562;13.414;2022-10-31T16:18:45;21.52;;;10.23;;
35648;SDS011;21768;48.562;13.414;2022-10-31T16:21:11;24.45;;;10.05;;
35648;SDS011;21768;48.562;13.414;2022-10-31T16:23:38;22.45;;;10.35;;
35648;SDS011;21768;48.562;13.414;2022-10-31T16:26:12;26.95;;;11.30;;
35648;SDS011;21768;48.562;13.414;2022-10-31T16:28:49;23.15;;;11.93;;
35648;SDS011;21768;48.562;13.414;2022-10-31T16:31:24;31.75;;;14.90;;
35648;SDS011;21768;48.562;13.414;2022-10-31T16:34:01;25.45;;;11.55;;
35648;SDS011;21768;48.562;13.414;2022-10-31T16:38:54;22.38;;;9.88;;
35648;SDS011;21768;48.562;13.414;2022-10-31T16:41:19;18.40;;;9.85;;
35648;SDS011;21768;48.562;13.414;2022-10-31T16:43:45;26.70;;;11.32;;
35648;SDS011;21768;48.562;13.414;2022-10-31T16:46:14;33.22;;;12.85;;
35648;SDS011;21768;48.562;13.414;2022-10-31T16:48:43;33.80;;;12.77;;
35648;SDS011;21768;48.562;13.414;2022-10-31T16:51:08;28.75;;;11.63;;
35648;SDS011;21768;48.562;13.414;2022-10-31T16:53:33;26.40;;;11.25;;
35648;SDS011;21768;48.562;13.414;2022-10-31T16:55:59;28.55;;;11.70;;
35648;SDS011;21768;48.562;13.414;2022-10-31T16:58:29;22.70;;;10.77;;
35648;SDS011;21768;48.562;13.414;2022-10-31T17:00:57;18.40;;;10.27;;
35648;SDS011;21768;48.562;13.414;2022-10-31T17:03:23;28.05;;;10.23;;
35648;SDS011;21768;48.562;13.414;2022-10-31T17:05:49;30.90;;;11.20;;